createdAt,value
2023-01-18T00:00:40.927Z,9.95
2023-01-18T00:03:13.270Z,6.55
2023-01-18T00:05:42.141Z,4.93
2023-01-18T00:08:13.103Z,4.82
2023-01-18T00:10:40.336Z,7.10
2023-01-18T00:13:07.181Z,3.55
2023-01-18T00:15:35.199Z,8.57
2023-01-18T00:18:02.760Z,1.38
2023-01-18T00:20:30.812Z,11.93
2023-01-18T00:23:00.428Z,6.15
2023-01-18T00:25:27.454Z,4.57
2023-01-18T00:27:55.672Z,6.22
2023-01-18T00:30:25.803Z,7.35
2023-01-18T00:32:55.533Z,6.47
2023-01-18T00:35:23.632Z,7.72
2023-01-18T00:37:51.718Z,5.85
2023-01-18T00:40:22.662Z,6.53
2023-01-18T00:43:08.209Z,2.58
2023-01-18T00:45:35.156Z,5.50
2023-01-18T00:48:02.772Z,12.02
2023-01-18T00:50:29.893Z,4.63
2023-01-18T00:52:58.821Z,3.03
2023-01-18T00:55:26.487Z,5.13
2023-01-18T00:57:53.508Z,3.40
2023-01-18T01:00:26.644Z,2.28
2023-01-18T01:02:53.931Z,6.60
2023-01-18T01:05:43.129Z,6.85
2023-01-18T01:08:17.469Z,4.47
2023-01-18T01:10:49.998Z,3.75
2023-01-18T01:13:38.237Z,2.97
2023-01-18T01:16:32.348Z,8.07
2023-01-18T01:19:17.745Z,10.55
2023-01-18T01:22:03.356Z,8.68
2023-01-18T01:24:48.642Z,3.40
2023-01-18T01:27:15.616Z,2.75
2023-01-18T01:29:42.499Z,5.53
2023-01-18T01:32:10.255Z,2.45
2023-01-18T01:34:37.214Z,3.05
2023-01-18T01:37:04.836Z,1.63
2023-01-18T01:39:31.763Z,2.65
2023-01-18T01:41:58.628Z,1.17
2023-01-18T01:44:28.053Z,4.05
2023-01-18T01:46:59.320Z,2.72
2023-01-18T01:49:42.911Z,2.50
2023-01-18T01:52:16.384Z,6.47
2023-01-18T01:55:04.675Z,3.15
2023-01-18T01:57:36.636Z,3.17
2023-01-18T02:00:14.544Z,8.82
2023-01-18T02:02:44.739Z,2.10
2023-01-18T02:05:14.157Z,3.85
2023-01-18T02:07:41.269Z,3.55
2023-01-18T02:10:08.895Z,6.57
2023-01-18T02:12:38.423Z,7.82
2023-01-18T02:15:06.118Z,6.13
2023-01-18T02:17:32.876Z,5.00
2023-01-18T02:20:21.881Z,1.35
2023-01-18T02:22:58.066Z,0.82
2023-01-18T02:25:39.862Z,2.80
2023-01-18T02:28:12.607Z,5.90
2023-01-18T02:30:46.773Z,2.03
2023-01-18T02:33:34.744Z,7.45
2023-01-18T02:36:03.909Z,5.45
2023-01-18T02:38:45.625Z,3.72
2023-01-18T02:41:21.483Z,3.38
2023-01-18T02:44:12.440Z,4.00
2023-01-18T02:46:40.445Z,1.42
2023-01-18T02:49:18.313Z,3.95
2023-01-18T02:51:45.177Z,0.77
2023-01-18T02:54:24.097Z,0.57
2023-01-18T02:56:53.975Z,2.83
2023-01-18T02:59:26.783Z,3.63
2023-01-18T03:01:59.523Z,2.00
2023-01-18T03:04:35.669Z,1.08
2023-01-18T03:07:09.509Z,1.73
2023-01-18T03:09:37.066Z,2.08
2023-01-18T03:12:25.840Z,4.03
2023-01-18T03:15:05.730Z,5.25
2023-01-18T03:17:43.664Z,4.50
2023-01-18T03:20:13.316Z,6.30
2023-01-18T03:23:07.994Z,3.25
2023-01-18T03:25:42.358Z,5.32
2023-01-18T03:28:38.428Z,4.30
2023-01-18T03:31:28.658Z,2.58
2023-01-18T03:34:00.802Z,1.42
2023-01-18T03:36:31.923Z,2.67
2023-01-18T03:39:06.150Z,3.95
2023-01-18T03:41:37.102Z,3.70
2023-01-18T03:44:11.755Z,10.00
2023-01-18T03:46:40.494Z,3.70
2023-01-18T03:49:08.273Z,5.00
2023-01-18T03:51:47.435Z,4.00
2023-01-18T03:54:23.176Z,2.67
2023-01-18T03:57:01.101Z,5.75
2023-01-18T03:59:33.771Z,4.45
2023-01-18T04:02:01.063Z,5.25
2023-01-18T04:04:27.896Z,7.80
2023-01-18T04:06:54.719Z,4.95
2023-01-18T04:09:21.594Z,2.72
2023-01-18T04:11:48.420Z,3.60
2023-01-18T04:14:15.420Z,3.65
2023-01-18T04:16:42.235Z,3.30
2023-01-18T04:19:09.067Z,3.65
2023-01-18T04:21:35.998Z,4.03
2023-01-18T04:24:02.836Z,3.58
2023-01-18T04:26:30.031Z,6.82
2023-01-18T04:28:56.992Z,3.03
2023-01-18T04:31:23.829Z,3.78
2023-01-18T04:33:51.674Z,2.60
2023-01-18T04:36:20.195Z,3.42
2023-01-18T04:38:47.031Z,2.28
2023-01-18T04:41:13.841Z,2.67
2023-01-18T04:43:40.701Z,3.78
2023-01-18T04:46:07.489Z,5.05
2023-01-18T04:48:34.339Z,3.78
2023-01-18T04:51:01.148Z,4.15
2023-01-18T04:53:27.964Z,4.13
2023-01-18T04:55:54.878Z,2.70
2023-01-18T04:58:21.723Z,4.10
2023-01-18T05:00:49.165Z,2.30
2023-01-18T05:03:16.253Z,1.58
2023-01-18T05:05:43.102Z,2.28
2023-01-18T05:08:09.981Z,0.88
2023-01-18T05:10:36.788Z,4.47
2023-01-18T05:13:03.900Z,2.80
2023-01-18T05:15:30.836Z,3.58
2023-01-18T05:17:57.705Z,4.47
2023-01-18T05:20:24.491Z,4.25
2023-01-18T05:22:51.317Z,4.18
2023-01-18T05:25:18.169Z,7.82
2023-01-18T05:27:45.004Z,3.70
2023-01-18T05:30:12.384Z,4.00
2023-01-18T05:32:39.365Z,5.97
2023-01-18T05:35:06.618Z,3.25
2023-01-18T05:37:33.858Z,5.50
2023-01-18T05:40:01.435Z,4.68
2023-01-18T05:42:28.334Z,2.80
2023-01-18T05:44:55.151Z,5.05
2023-01-18T05:47:22.482Z,2.10
2023-01-18T05:49:49.577Z,0.80
2023-01-18T05:52:17.091Z,3.28
2023-01-18T05:54:43.913Z,1.45
2023-01-18T05:57:10.940Z,2.20
2023-01-18T05:59:37.811Z,1.48
2023-01-18T06:02:04.961Z,1.75
2023-01-18T06:04:31.911Z,2.55
2023-01-18T06:06:59.067Z,2.67
2023-01-18T06:09:25.975Z,7.13
2023-01-18T06:11:52.767Z,1.45
2023-01-18T06:14:19.621Z,2.25
2023-01-18T06:16:46.521Z,2.85
2023-01-18T06:19:13.478Z,2.78
2023-01-18T06:21:40.285Z,2.40
2023-01-18T06:24:07.437Z,2.45
2023-01-18T06:26:34.784Z,2.05
2023-01-18T06:29:01.568Z,3.65
2023-01-18T06:31:28.402Z,3.15
2023-01-18T06:33:55.220Z,2.90
2023-01-18T06:36:22.298Z,2.20
2023-01-18T06:38:49.309Z,4.75
2023-01-18T06:41:16.099Z,4.28
2023-01-18T06:43:43.123Z,4.43
2023-01-18T06:46:11.645Z,3.10
2023-01-18T06:48:38.733Z,9.70
2023-01-18T06:51:05.738Z,9.02
2023-01-18T06:53:32.613Z,1.90
2023-01-18T06:56:01.945Z,7.85
2023-01-18T06:58:32.778Z,12.13
2023-01-18T07:01:00.789Z,8.30
2023-01-18T07:03:29.268Z,8.93
2023-01-18T07:05:58.686Z,5.55
2023-01-18T07:08:27.007Z,8.50
2023-01-18T07:10:54.421Z,3.67
2023-01-18T07:13:22.226Z,8.27
2023-01-18T07:16:00.856Z,4.13
2023-01-18T07:18:29.884Z,6.93
2023-01-18T07:21:04.546Z,6.05
2023-01-18T07:23:39.370Z,3.13
2023-01-18T07:26:11.789Z,3.95
2023-01-18T07:28:38.726Z,5.10
2023-01-18T07:31:07.982Z,6.32
2023-01-18T07:33:35.626Z,5.57
2023-01-18T07:36:07.380Z,4.22
2023-01-18T07:38:34.451Z,6.55
2023-01-18T07:41:04.441Z,3.20
2023-01-18T07:43:33.015Z,3.63
2023-01-18T07:46:00.945Z,4.90
2023-01-18T07:48:28.579Z,6.57
2023-01-18T07:51:00.296Z,4.63
2023-01-18T07:53:28.260Z,6.03
2023-01-18T07:55:58.558Z,4.68
2023-01-18T07:58:25.346Z,5.68
2023-01-18T08:00:52.806Z,6.25
2023-01-18T08:03:20.173Z,2.15
2023-01-18T08:05:47.842Z,7.53
2023-01-18T08:08:17.042Z,9.43
2023-01-18T08:10:44.594Z,3.15
2023-01-18T08:13:11.856Z,6.07
2023-01-18T08:15:39.837Z,2.45
2023-01-18T08:18:08.058Z,5.57
2023-01-18T08:20:35.299Z,3.05
2023-01-18T08:23:02.689Z,4.50
2023-01-18T08:25:31.712Z,7.95
2023-01-18T08:28:00.223Z,1.75
2023-01-18T08:30:30.247Z,2.20
2023-01-18T08:32:59.266Z,4.50
2023-01-18T08:35:28.428Z,6.43
2023-01-18T08:37:56.017Z,4.63
2023-01-18T08:40:23.544Z,2.40
2023-01-18T08:42:51.150Z,6.22
2023-01-18T08:45:18.105Z,5.03
2023-01-18T08:47:44.969Z,8.93
2023-01-18T08:50:11.928Z,5.13
2023-01-18T08:52:38.925Z,4.38
2023-01-18T08:55:07.258Z,4.53
2023-01-18T08:57:34.176Z,1.90
2023-01-18T09:00:01.180Z,4.32
2023-01-18T09:02:28.054Z,4.22
2023-01-18T09:04:54.932Z,4.95
2023-01-18T09:07:21.741Z,4.05
2023-01-18T09:09:48.585Z,5.05
2023-01-18T09:12:15.432Z,8.55
2023-01-18T09:14:42.183Z,3.50
2023-01-18T09:17:09.019Z,2.03
2023-01-18T09:19:35.899Z,4.03
2023-01-18T09:22:03.748Z,3.30
2023-01-18T09:24:30.600Z,4.20
2023-01-18T09:26:57.414Z,7.40
2023-01-18T09:29:24.491Z,3.15
2023-01-18T09:31:53.918Z,3.05
2023-01-18T09:34:20.878Z,6.97
2023-01-18T09:36:52.381Z,3.42
2023-01-18T09:39:20.614Z,4.63
2023-01-18T09:41:56.418Z,2.13
2023-01-18T09:44:36.026Z,4.28
2023-01-18T09:47:22.732Z,3.60
2023-01-18T09:49:54.992Z,4.88
2023-01-18T09:52:57.387Z,6.85
2023-01-18T09:55:51.083Z,4.00
2023-01-18T09:58:52.327Z,2.83
2023-01-18T10:01:23.473Z,3.78
2023-01-18T10:04:02.070Z,2.05
2023-01-18T10:06:35.130Z,2.40
2023-01-18T10:09:15.708Z,7.18
2023-01-18T10:12:12.564Z,7.00
2023-01-18T10:14:48.176Z,5.30
2023-01-18T10:17:21.272Z,2.88
2023-01-18T10:19:48.342Z,8.80
2023-01-18T10:22:33.207Z,4.00
2023-01-18T10:25:05.009Z,2.53
2023-01-18T10:27:51.139Z,7.90
2023-01-18T10:30:40.019Z,5.53
2023-01-18T10:33:23.229Z,6.55
2023-01-18T10:35:55.234Z,5.55
2023-01-18T10:38:26.431Z,6.57
2023-01-18T10:40:58.986Z,5.75
2023-01-18T10:43:28.716Z,8.35
2023-01-18T10:45:56.280Z,5.95
2023-01-18T10:48:34.836Z,8.32
2023-01-18T10:51:05.896Z,6.90
2023-01-18T10:53:40.083Z,8.52
2023-01-18T10:56:09.936Z,4.32
2023-01-18T10:58:50.645Z,5.07
2023-01-18T11:01:24.523Z,6.35
2023-01-18T11:03:55.155Z,10.05
2023-01-18T11:06:23.087Z,9.75
2023-01-18T11:08:50.718Z,8.43
2023-01-18T11:11:51.603Z,6.93
2023-01-18T11:14:29.508Z,7.35
2023-01-18T11:17:10.928Z,9.02
2023-01-18T11:19:39.003Z,8.25
2023-01-18T11:22:12.677Z,9.13
2023-01-18T11:24:40.023Z,8.07
2023-01-18T11:27:20.363Z,7.90
2023-01-18T11:29:47.414Z,6.95
2023-01-18T11:32:30.847Z,8.27
2023-01-18T11:35:00.104Z,8.15
2023-01-18T11:37:26.936Z,5.47
2023-01-18T11:39:53.698Z,7.35
2023-01-18T11:42:34.385Z,6.57
2023-01-18T11:45:40.797Z,5.90
2023-01-18T11:48:36.902Z,6.00
2023-01-18T11:51:34.593Z,8.90
2023-01-18T11:54:26.623Z,6.70
2023-01-18T11:56:56.671Z,10.32
2023-01-18T11:59:25.820Z,5.60
2023-01-18T12:02:01.539Z,5.35
2023-01-18T12:04:40.349Z,8.23
2023-01-18T12:07:33.561Z,7.10
2023-01-18T12:10:08.634Z,5.35
2023-01-18T12:13:02.648Z,6.97
2023-01-18T12:15:49.786Z,5.38
2023-01-18T12:19:10.199Z,7.63
2023-01-18T12:22:04.374Z,6.93
2023-01-18T12:24:31.132Z,9.50
2023-01-18T12:27:02.932Z,7.07
2023-01-18T12:29:58.722Z,9.88
2023-01-18T12:32:55.165Z,4.80
2023-01-18T12:35:51.731Z,4.60
2023-01-18T12:38:28.385Z,5.03
2023-01-18T12:41:32.486Z,5.43
2023-01-18T12:44:17.164Z,3.17
2023-01-18T12:47:07.390Z,4.03
2023-01-18T12:49:45.786Z,2.50
2023-01-18T12:52:18.874Z,11.50
2023-01-18T12:54:50.877Z,5.55
2023-01-18T12:57:19.696Z,4.40
2023-01-18T13:00:33.140Z,7.22
2023-01-18T13:03:00.094Z,5.35
2023-01-18T13:05:52.227Z,3.28
2023-01-18T13:08:54.054Z,2.65
2023-01-18T13:11:35.505Z,5.60
2023-01-18T13:14:17.708Z,9.27
2023-01-18T13:16:55.584Z,7.13
2023-01-18T13:19:29.312Z,4.00
2023-01-18T13:22:26.645Z,5.95
2023-01-18T13:25:31.125Z,4.85
2023-01-18T13:28:14.313Z,6.80
2023-01-18T13:30:56.549Z,4.88
2023-01-18T13:33:27.093Z,5.75
2023-01-18T13:36:02.508Z,6.97
2023-01-18T13:38:41.100Z,9.75
2023-01-18T13:41:12.624Z,4.60
2023-01-18T13:43:46.137Z,5.22
2023-01-18T13:46:18.767Z,9.02
2023-01-18T13:48:50.498Z,6.32
2023-01-18T13:51:42.739Z,8.48
2023-01-18T13:54:29.526Z,3.70
2023-01-18T13:57:05.315Z,7.63
2023-01-18T13:59:45.199Z,4.57
2023-01-18T14:02:34.432Z,6.57
2023-01-18T14:05:26.963Z,6.05
2023-01-18T14:07:58.932Z,7.85
2023-01-18T14:10:38.995Z,9.95
2023-01-18T14:13:13.993Z,7.80
2023-01-18T14:15:43.619Z,7.90
2023-01-18T14:18:30.419Z,15.88
2023-01-18T14:21:23.493Z,6.65
2023-01-18T14:24:09.520Z,6.50
2023-01-18T14:26:39.145Z,7.13
2023-01-18T14:29:11.800Z,4.93
2023-01-18T14:31:47.106Z,7.68
2023-01-18T14:34:29.461Z,5.80
2023-01-18T14:36:57.616Z,7.25
2023-01-18T14:39:24.805Z,7.68
2023-01-18T14:42:04.148Z,8.75
2023-01-18T14:44:57.709Z,7.43
2023-01-18T14:47:30.317Z,11.80
2023-01-18T14:49:57.504Z,6.22
2023-01-18T14:52:28.896Z,7.63
2023-01-18T14:54:56.202Z,7.32
2023-01-18T14:57:24.224Z,7.72
2023-01-18T14:59:53.534Z,7.55
2023-01-18T15:02:24.875Z,6.90
2023-01-18T15:04:52.511Z,6.82
2023-01-18T15:07:30.660Z,5.70
2023-01-18T15:09:58.690Z,5.70
2023-01-18T15:12:31.441Z,4.88
2023-01-18T15:15:15.773Z,7.82
2023-01-18T15:17:43.157Z,8.68
2023-01-18T15:20:14.827Z,15.07
2023-01-18T15:22:42.467Z,7.03
2023-01-18T15:25:24.528Z,7.65
2023-01-18T15:27:52.555Z,8.40
2023-01-18T15:30:22.661Z,11.95
2023-01-18T15:32:57.783Z,6.95
2023-01-18T15:35:25.808Z,14.88
2023-01-18T15:37:52.696Z,12.10
2023-01-18T15:40:19.519Z,9.55
2023-01-18T15:42:51.671Z,10.80
2023-01-18T15:45:24.083Z,9.68
2023-01-18T15:47:54.381Z,10.45
2023-01-18T15:50:36.214Z,9.77
2023-01-18T15:53:06.111Z,9.43
2023-01-18T15:55:45.787Z,13.10
2023-01-18T15:58:15.847Z,14.52
2023-01-18T16:00:46.926Z,8.23
2023-01-18T16:03:31.909Z,9.10
2023-01-18T16:06:15.147Z,9.13
2023-01-18T16:09:16.067Z,11.15
2023-01-18T16:11:47.622Z,11.90
2023-01-18T16:14:32.412Z,12.50
2023-01-18T16:17:02.426Z,10.18
2023-01-18T16:19:31.745Z,9.02
2023-01-18T16:22:01.623Z,11.18
2023-01-18T16:24:36.823Z,23.23
2023-01-18T16:27:12.747Z,12.73
2023-01-18T16:29:52.181Z,11.30
2023-01-18T16:32:24.893Z,12.07
2023-01-18T16:34:55.263Z,18.25
2023-01-18T16:39:49.765Z,16.77
2023-01-18T16:42:18.191Z,10.25
2023-01-18T16:44:47.291Z,11.85
2023-01-18T16:47:16.587Z,11.25
2023-01-18T16:49:44.181Z,13.70
2023-01-18T16:52:12.886Z,9.50
2023-01-18T16:54:44.544Z,12.98
2023-01-18T16:57:23.452Z,12.70
2023-01-18T16:59:50.733Z,13.68
2023-01-18T17:02:17.688Z,11.73
2023-01-18T17:04:46.627Z,9.45
2023-01-18T17:07:14.090Z,12.93
2023-01-18T17:09:48.543Z,14.80
2023-01-18T17:12:16.297Z,13.93
2023-01-18T17:14:43.199Z,10.30
2023-01-18T17:17:11.102Z,12.80
2023-01-18T17:19:38.219Z,17.38
2023-01-18T17:22:06.439Z,12.43
2023-01-18T17:24:33.457Z,10.65
2023-01-18T17:27:01.312Z,16.85
2023-01-18T17:29:28.203Z,8.55
2023-01-18T17:31:55.209Z,11.07
2023-01-18T17:34:27.986Z,9.73
2023-01-18T17:36:58.210Z,16.13
2023-01-18T17:39:36.852Z,23.92
2023-01-18T17:42:18.728Z,14.90
2023-01-18T17:44:49.963Z,10.52
2023-01-18T17:47:16.850Z,14.15
2023-01-18T17:49:43.801Z,11.90
2023-01-18T17:52:10.791Z,11.57
2023-01-18T17:54:37.581Z,13.20
2023-01-18T17:57:05.392Z,17.55
2023-01-18T17:59:32.192Z,14.30
2023-01-18T18:01:59.093Z,11.30
2023-01-18T18:04:26.116Z,16.90
2023-01-18T18:06:58.343Z,11.18
2023-01-18T18:09:25.639Z,14.10
2023-01-18T18:11:53.226Z,15.10
2023-01-18T18:14:20.137Z,15.35
2023-01-18T18:16:47.273Z,13.48
2023-01-18T18:19:14.731Z,15.00
2023-01-18T18:21:45.860Z,14.48
2023-01-18T18:24:12.825Z,19.92
2023-01-18T18:26:39.888Z,13.05
2023-01-18T18:29:06.817Z,11.35
2023-01-18T18:31:33.954Z,12.00
2023-01-18T18:34:00.994Z,19.75
2023-01-18T18:36:28.106Z,17.45
2023-01-18T18:38:54.905Z,18.85
2023-01-18T18:41:21.855Z,13.48
2023-01-18T18:43:48.654Z,17.85
2023-01-18T18:46:15.587Z,17.75
2023-01-18T18:48:42.692Z,17.90
2023-01-18T18:51:09.963Z,22.75
2023-01-18T18:53:41.113Z,26.52
2023-01-18T18:56:10.303Z,18.10
2023-01-18T18:58:38.692Z,19.98
2023-01-18T19:01:06.685Z,20.42
2023-01-18T19:03:34.423Z,13.68
2023-01-18T19:06:01.613Z,18.30
2023-01-18T19:08:28.486Z,16.20
2023-01-18T19:10:57.181Z,16.38
2023-01-18T19:13:24.007Z,16.27
2023-01-18T19:15:51.408Z,14.13
2023-01-18T19:18:18.401Z,16.67
2023-01-18T19:20:45.324Z,15.00
2023-01-18T19:23:12.312Z,13.30
2023-01-18T19:25:39.411Z,12.68
2023-01-18T19:28:06.707Z,17.38
2023-01-18T19:30:33.664Z,14.85
2023-01-18T19:33:00.791Z,18.63
2023-01-18T19:35:28.171Z,18.17
2023-01-18T19:37:55.441Z,15.90
2023-01-18T19:40:22.269Z,15.32
2023-01-18T19:42:55.904Z,18.85
2023-01-18T19:45:28.147Z,16.58
2023-01-18T19:47:57.617Z,22.45
2023-01-18T19:50:25.372Z,19.42
2023-01-18T19:52:52.855Z,22.33
2023-01-18T19:55:21.692Z,20.73
2023-01-18T19:57:49.642Z,19.42
2023-01-18T20:00:16.888Z,22.30
2023-01-18T20:02:44.489Z,18.40
2023-01-18T20:05:11.726Z,16.85
2023-01-18T20:07:39.361Z,15.40
2023-01-18T20:10:07.369Z,21.17
2023-01-18T20:12:34.232Z,20.33
2023-01-18T20:15:01.247Z,24.98
2023-01-18T20:17:28.235Z,19.00
2023-01-18T20:19:55.100Z,24.90
2023-01-18T20:22:22.891Z,19.80
2023-01-18T20:24:50.013Z,28.45
2023-01-18T20:27:17.290Z,22.35
2023-01-18T20:29:44.921Z,24.90
2023-01-18T20:32:19.268Z,36.83
2023-01-18T20:34:47.319Z,25.52
2023-01-18T20:37:15.429Z,25.52
2023-01-18T20:39:42.686Z,18.15
2023-01-18T20:42:09.855Z,24.48
2023-01-18T20:44:36.739Z,21.60
2023-01-18T20:47:04.236Z,19.05
2023-01-18T20:49:38.444Z,23.05
2023-01-18T20:52:07.088Z,24.13
2023-01-18T20:54:36.179Z,33.00
2023-01-18T20:57:04.540Z,29.50
2023-01-18T20:59:31.465Z,29.35
2023-01-18T21:01:58.518Z,20.48
2023-01-18T21:04:25.833Z,17.65
2023-01-18T21:06:52.691Z,21.02
2023-01-18T21:09:19.642Z,20.27
2023-01-18T21:11:46.411Z,19.63
2023-01-18T21:14:13.283Z,20.60
2023-01-18T21:16:40.391Z,16.88
2023-01-18T21:19:07.596Z,15.00
2023-01-18T21:21:34.387Z,16.58
2023-01-18T21:24:01.591Z,19.27
2023-01-18T21:26:32.189Z,15.48
2023-01-18T21:28:59.324Z,18.08
2023-01-18T21:31:28.467Z,19.58
2023-01-18T21:33:55.451Z,18.80
2023-01-18T21:36:23.049Z,16.23
2023-01-18T21:38:50.752Z,12.75
2023-01-18T21:41:36.791Z,16.15
2023-01-18T21:44:22.360Z,18.83
2023-01-18T21:46:51.669Z,18.25
2023-01-18T21:50:19.449Z,15.07
2023-01-18T21:52:43.260Z,23.45
2023-01-18T21:55:10.587Z,11.50
2023-01-18T21:57:38.722Z,14.73
2023-01-18T22:00:06.374Z,14.95
2023-01-18T22:02:36.855Z,14.82
2023-01-18T22:05:04.386Z,19.00
2023-01-18T22:07:33.911Z,17.55
2023-01-18T22:10:06.046Z,11.43
2023-01-18T22:12:35.521Z,15.43
2023-01-18T22:15:04.464Z,12.65
2023-01-18T22:17:31.541Z,13.45
2023-01-18T22:19:58.384Z,10.70
2023-01-18T22:22:25.223Z,13.20
2023-01-18T22:24:52.312Z,10.57
2023-01-18T22:27:19.279Z,11.32
2023-01-18T22:29:46.075Z,12.05
2023-01-18T22:32:13.018Z,10.35
2023-01-18T22:34:39.956Z,10.85
2023-01-18T22:37:06.746Z,16.20
2023-01-18T22:39:33.654Z,9.75
2023-01-18T22:42:00.688Z,11.60
2023-01-18T22:44:27.528Z,11.77
2023-01-18T22:46:54.358Z,9.18
2023-01-18T22:49:21.804Z,13.93
2023-01-18T22:51:48.651Z,13.35
2023-01-18T22:54:15.956Z,10.32
2023-01-18T22:56:42.845Z,10.93
2023-01-18T22:59:09.634Z,13.05
2023-01-18T23:01:36.425Z,12.85
2023-01-18T23:04:04.244Z,13.95
2023-01-18T23:06:42.197Z,10.90
2023-01-18T23:09:10.049Z,17.05
2023-01-18T23:11:37.197Z,18.50
2023-01-18T23:14:22.993Z,15.70
2023-01-18T23:17:08.089Z,21.13
2023-01-18T23:19:35.462Z,15.90
2023-01-18T23:22:07.400Z,15.88
2023-01-18T23:24:36.369Z,15.75
2023-01-18T23:27:05.213Z,15.00
2023-01-18T23:29:32.256Z,16.17
2023-01-18T23:31:59.412Z,16.40
2023-01-18T23:34:26.513Z,14.55
2023-01-18T23:36:53.746Z,15.15
2023-01-18T23:39:39.403Z,13.55
2023-01-18T23:42:24.984Z,18.33
2023-01-18T23:45:10.377Z,12.65
2023-01-18T23:47:56.452Z,14.10
2023-01-18T23:50:41.995Z,13.75
2023-01-18T23:53:32.121Z,7.80
2023-01-18T23:55:59.748Z,8.25
2023-01-18T23:58:27.663Z,7.35
